Time;durP1;ratioP1;P1;durP2;ratioP2;P2;SDS_P1;SDS_P2;PMS_P1;PMS_P2;Temp;Humidity;BMP_temperature;BMP_pressure;BME280_temperature;BME280_humidity;BME280_pressure;Samples;Min_cycle;Max_cycle;Signal;HPM_P1;HPM_P2
2022/03/27 00:01:09;;;;;;;6.13;5.07;;;16.40;81.00;;;;;;5053076;28;20432;-72
2022/03/27 00:03:35;;;;;;;6.00;5.00;;;16.40;81.10;;;;;;5088221;28;20416;-71
2022/03/27 00:06:09;;;;;;;6.50;5.10;;;16.40;81.10;;;;;;5055714;28;20968;-72
2022/03/27 00:08:35;;;;;;;6.90;5.00;;;16.40;81.10;;;;;;5058875;28;20439;-71
2022/03/27 00:14:12;;;;;;;5.20;4.60;;;16.40;81.30;;;;;;5091510;28;20964;-70
2022/03/27 00:20:51;;;;;;;6.67;4.63;;;16.30;81.40;;;;;;5060585;28;20687;-70
2022/03/27 00:23:23;;;;;;;7.30;5.00;;;16.30;81.50;;;;;;5073189;28;20469;-70
2022/03/27 00:26:38;;;;;;;5.53;4.93;;;16.30;81.50;;;;;;5081922;28;20499;-71
2022/03/27 00:29:08;;;;;;;6.00;4.97;;;16.30;81.80;;;;;;5038144;28;20515;-72
2022/03/27 00:31:40;;;;;;;5.30;4.70;;;16.20;81.70;;;;;;5064449;28;20444;-71
2022/03/27 00:34:57;;;;;;;5.20;4.70;;;16.20;81.80;;;;;;5057927;28;20448;-70
2022/03/27 00:38:16;;;;;;;5.30;4.50;;;16.20;81.80;;;;;;5079967;28;20923;-71
2022/03/27 00:40:46;;;;;;;5.10;4.60;;;16.20;81.90;;;;;;5038902;28;20423;-71
2022/03/27 00:43:12;;;;;;;6.67;4.70;;;16.10;81.80;;;;;;5054245;28;20431;-71
2022/03/27 00:45:42;;;;;;;4.97;4.47;;;16.10;81.90;;;;;;5057713;28;20456;-71
2022/03/27 00:48:12;;;;;;;5.20;4.67;;;16.10;82.00;;;;;;5073088;28;20574;-70
2022/03/27 00:54:32;;;;;;;6.70;4.33;;;16.10;82.10;;;;;;5067465;28;20421;-71
2022/03/27 00:57:08;;;;;;;5.20;4.57;;;16.10;82.20;;;;;;5072690;28;20478;-70
2022/03/27 01:00:07;;;;;;;6.83;4.40;;;16.00;82.30;;;;;;5077870;28;20441;-71
2022/03/27 01:02:36;;;;;;;6.70;5.10;;;16.00;82.40;;;;;;5050641;28;20451;-71
2022/03/27 01:05:53;;;;;;;5.50;4.97;;;16.00;82.40;;;;;;5079927;28;20437;-70
2022/03/27 01:12:17;;;;;;;5.70;4.20;;;16.00;82.60;;;;;;5079200;28;20434;-71
2022/03/27 01:14:50;;;;;;;4.90;3.67;;;15.90;82.60;;;;;;5047849;28;20427;-72
2022/03/27 01:17:19;;;;;;;6.10;4.50;;;15.90;82.70;;;;;;5037474;28;20422;-70
2022/03/27 01:20:16;;;;;;;4.87;4.03;;;15.90;82.80;;;;;;5053351;28;20409;-70
2022/03/27 01:22:42;;;;;;;4.53;3.93;;;15.90;82.80;;;;;;5071631;28;20455;-71
2022/03/27 01:25:13;;;;;;;6.70;4.63;;;15.90;82.90;;;;;;5058707;28;20443;-71
2022/03/27 01:27:42;;;;;;;4.10;3.67;;;15.80;82.90;;;;;;5073097;28;21006;-71
2022/03/27 01:31:07;;;;;;;6.00;4.50;;;15.90;83.10;;;;;;5054462;28;20462;-70
2022/03/27 01:34:25;;;;;;;5.47;4.70;;;15.80;83.00;;;;;;5067167;28;20488;-70
2022/03/27 01:37:43;;;;;;;5.43;4.30;;;15.80;83.10;;;;;;5053778;28;20605;-71
2022/03/27 01:41:07;;;;;;;4.37;3.80;;;15.80;83.20;;;;;;5055019;28;20427;-70
2022/03/27 01:44:03;;;;;;;5.07;3.97;;;15.70;83.20;;;;;;5058529;28;20786;-70
2022/03/27 01:46:36;;;;;;;5.23;3.97;;;15.70;83.30;;;;;;5083674;28;20583;-69
2022/03/27 01:49:53;;;;;;;4.40;3.57;;;15.70;83.40;;;;;;5064822;28;20427;-70
2022/03/27 01:52:23;;;;;;;9.00;4.60;;;15.70;83.60;;;;;;5064860;28;20493;-70
2022/03/27 01:54:49;;;;;;;4.03;3.63;;;15.70;83.60;;;;;;5048394;28;20445;-70
2022/03/27 01:57:15;;;;;;;5.40;4.13;;;15.60;83.60;;;;;;5071302;28;20430;-70
2022/03/27 01:59:41;;;;;;;5.40;3.73;;;15.60;83.70;;;;;;5065970;28;20463;-70
2022/03/27 02:02:10;;;;;;;5.80;4.57;;;15.60;83.80;;;;;;5085955;28;20510;-70
2022/03/27 02:04:36;;;;;;;5.30;3.93;;;15.60;83.80;;;;;;5058862;28;20451;-70
2022/03/27 02:07:38;;;;;;;6.23;4.37;;;15.60;83.90;;;;;;5054681;28;20441;-70
2022/03/27 02:10:08;;;;;;;4.73;3.70;;;15.60;84.00;;;;;;5053661;28;20456;-70
2022/03/27 02:12:59;;;;;;;4.37;3.47;;;15.60;84.10;;;;;;5071441;28;20435;-70
2022/03/27 02:15:28;;;;;;;5.00;3.80;;;15.60;84.20;;;;;;5052570;28;20451;-70
2022/03/27 02:18:01;;;;;;;7.50;4.00;;;15.50;84.10;;;;;;5053389;28;20417;-70
2022/03/27 02:20:27;;;;;;;5.60;4.00;;;15.50;84.20;;;;;;5055056;28;20431;-70
2022/03/27 02:23:44;;;;;;;6.40;4.57;;;15.50;84.30;;;;;;5067731;28;20681;-70
2022/03/27 02:26:47;;;;;;;4.80;3.63;;;15.50;84.40;;;;;;5059158;28;20589;-71
2022/03/27 02:29:17;;;;;;;7.30;3.87;;;15.50;84.50;;;;;;5055747;28;20462;-70
2022/03/27 02:32:34;;;;;;;6.20;4.03;;;15.40;84.50;;;;;;5052496;28;20453;-70
2022/03/27 02:35:04;;;;;;;5.37;3.80;;;15.40;84.60;;;;;;5058261;28;20977;-70
2022/03/27 02:37:30;;;;;;;5.67;3.70;;;15.40;84.60;;;;;;5063687;28;20427;-70
2022/03/27 02:40:26;;;;;;;4.83;3.70;;;15.40;84.80;;;;;;5066167;28;20431;-70
2022/03/27 02:47:34;;;;;;;4.40;3.80;;;15.30;84.90;;;;;;5073754;28;20450;-70
2022/03/27 02:50:50;;;;;;;6.73;3.80;;;15.30;85.00;;;;;;5076172;28;20455;-69
2022/03/27 02:54:14;;;;;;;4.20;3.50;;;15.30;85.20;;;;;;5072780;28;20504;-69
2022/03/27 02:56:43;;;;;;;6.17;3.47;;;15.30;85.50;;;;;;5058819;28;20813;-70
2022/03/27 02:59:13;;;;;;;5.03;3.70;;;15.30;85.50;;;;;;5026941;28;20459;-70
2022/03/27 03:02:30;;;;;;;5.10;3.90;;;15.20;85.50;;;;;;5044218;28;20468;-70
2022/03/27 03:05:51;;;;;;;6.90;4.30;;;15.20;85.60;;;;;;5052003;28;20461;-70
2022/03/27 03:08:26;;;;;;;4.90;3.77;;;15.20;85.70;;;;;;5073716;28;20418;-70
2022/03/27 03:10:56;;;;;;;6.13;3.93;;;15.20;85.90;;;;;;5078946;28;20508;-70
2022/03/27 03:14:13;;;;;;;4.80;4.23;;;15.20;86.10;;;;;;5070489;28;20457;-70
2022/03/27 03:17:12;;;;;;;4.43;3.70;;;15.20;86.10;;;;;;5039670;28;20452;-69
2022/03/27 03:19:45;;;;;;;4.43;3.53;;;15.20;86.20;;;;;;5054409;28;20451;-70
2022/03/27 03:22:14;;;;;;;4.50;3.33;;;15.10;86.20;;;;;;5059893;28;20473;-70
2022/03/27 03:24:42;;;;;;;5.60;3.83;;;15.10;86.40;;;;;;5060448;28;20455;-70
2022/03/27 03:27:59;;;;;;;6.17;4.37;;;15.10;86.40;;;;;;5078429;28;20518;-70
2022/03/27 03:34:16;;;;;;;5.30;4.00;;;15.10;86.50;;;;;;5051335;28;20435;-70
2022/03/27 03:44:55;;;;;;;4.03;3.40;;;15.00;86.80;;;;;;5060923;28;20426;-70
2022/03/27 03:47:54;;;;;;;4.90;4.10;;;15.00;87.10;;;;;;5041536;28;20910;-69
2022/03/27 03:50:26;;;;;;;6.33;3.60;;;15.00;87.30;;;;;;5064331;28;20449;-70
2022/03/27 03:53:43;;;;;;;4.93;4.40;;;15.00;87.30;;;;;;5074087;28;20421;-70
2022/03/27 03:56:14;;;;;;;5.23;3.60;;;15.00;87.50;;;;;;5082879;28;20442;-70
2022/03/27 03:58:43;;;;;;;4.80;4.30;;;15.00;87.50;;;;;;5086451;28;20828;-70
2022/03/27 04:02:00;;;;;;;6.00;3.93;;;14.90;87.50;;;;;;5075299;28;20505;-71
2022/03/27 04:05:18;;;;;;;4.87;4.17;;;14.90;87.60;;;;;;5055417;28;20471;-70
2022/03/27 04:08:38;;;;;;;4.93;4.00;;;14.90;87.70;;;;;;5060623;28;20409;-70
2022/03/27 04:11:05;;;;;;;4.37;3.80;;;14.90;87.80;;;;;;5059902;28;20469;-70
2022/03/27 04:14:00;;;;;;;5.20;4.20;;;14.90;88.00;;;;;;5069984;28;20432;-70
2022/03/27 04:17:18;;;;;;;5.73;4.00;;;14.90;88.20;;;;;;5048619;28;20542;-69
2022/03/27 04:19:44;;;;;;;5.03;3.87;;;14.80;88.10;;;;;;5055586;28;20425;-71
2022/03/27 04:22:14;;;;;;;6.40;4.07;;;14.80;88.40;;;;;;5053859;28;20910;-70
2022/03/27 04:25:06;;;;;;;5.17;4.20;;;14.80;88.70;;;;;;5065012;28;20791;-70
2022/03/27 04:27:36;;;;;;;5.83;5.03;;;14.80;88.90;;;;;;5057786;28;20494;-70
2022/03/27 04:30:53;;;;;;;7.07;5.10;;;14.80;89.00;;;;;;5059062;28;20451;-70
2022/03/27 04:33:21;;;;;;;9.40;5.67;;;14.80;89.40;;;;;;5056626;28;20422;-70
2022/03/27 04:35:50;;;;;;;6.90;5.53;;;14.70;89.50;;;;;;5068293;28;20504;-70
2022/03/27 04:39:07;;;;;;;7.53;5.80;;;14.70;90.10;;;;;;5070018;28;20824;-70
2022/03/27 04:42:00;;;;;;;9.07;6.70;;;14.70;89.70;;;;;;5079383;28;20172;-70
2022/03/27 04:44:26;;;;;;;8.47;6.87;;;14.70;89.60;;;;;;5088981;28;20431;-69
2022/03/27 04:47:43;;;;;;;8.40;6.40;;;14.70;89.70;;;;;;5060141;28;20441;-70
2022/03/27 04:51:01;;;;;;;9.77;7.63;;;14.70;89.90;;;;;;5054187;28;20800;-71
2022/03/27 04:54:42;;;;;;;11.77;7.37;;;14.70;89.90;;;;;;5072519;28;20437;-69
2022/03/27 04:58:03;;;;;;;11.57;8.50;;;14.60;90.00;;;;;;5064068;28;20879;-70
2022/03/27 05:01:23;;;;;;;13.57;8.60;;;14.60;90.10;;;;;;5078810;28;20420;-70
2022/03/27 05:04:42;;;;;;;13.83;8.73;;;14.60;90.20;;;;;;5056881;28;20804;-71
2022/03/27 05:08:00;;;;;;;14.43;9.10;;;14.60;90.20;;;;;;5039919;28;20429;-70
2022/03/27 05:10:27;;;;;;;13.90;8.70;;;14.60;90.30;;;;;;5054945;28;20458;-70
2022/03/27 05:12:57;;;;;;;15.87;9.47;;;14.50;90.40;;;;;;5038166;28;20769;-70
2022/03/27 05:35:40;;;;;;;14.90;9.83;;;14.40;90.80;;;;;;5072212;28;20449;-71
2022/03/27 05:38:32;;;;;;;18.10;11.57;;;14.50;90.80;;;;;;5069379;28;20435;-70
2022/03/27 05:41:48;;;;;;;19.60;12.10;;;14.40;90.90;;;;;;5043147;28;20417;-70
2022/03/27 05:44:48;;;;;;;16.83;10.27;;;14.40;91.00;;;;;;5084636;28;20430;-70
2022/03/27 05:47:16;;;;;;;15.17;11.30;;;14.40;91.00;;;;;;5072874;28;20416;-70
2022/03/27 05:50:31;;;;;;;18.07;11.37;;;14.40;91.00;;;;;;5086862;28;20467;-71
2022/03/27 05:53:53;;;;;;;18.87;12.40;;;14.40;91.10;;;;;;5056004;28;20866;-70
2022/03/27 05:57:10;;;;;;;16.60;11.80;;;14.40;91.10;;;;;;5037577;28;20457;-70
2022/03/27 06:00:53;;;;;;;16.77;11.03;;;14.40;91.10;;;;;;5070565;28;20424;-70
2022/03/27 06:03:22;;;;;;;18.20;11.90;;;14.40;91.20;;;;;;5072741;28;20446;-70
2022/03/27 06:05:49;;;;;;;18.87;11.13;;;14.30;91.20;;;;;;5069751;28;20513;-70
2022/03/27 06:09:06;;;;;;;23.27;11.67;;;14.30;91.30;;;;;;5072662;28;20401;-71
2022/03/27 06:12:25;;;;;;;17.77;10.70;;;14.30;91.30;;;;;;5075263;28;20455;-70
2022/03/27 06:14:54;;;;;;;17.47;11.83;;;14.30;91.30;;;;;;5087934;28;20426;-70
2022/03/27 06:17:20;;;;;;;20.00;12.43;;;14.30;91.40;;;;;;5060631;28;20464;-70
2022/03/27 06:19:50;;;;;;;18.07;12.70;;;14.30;91.50;;;;;;5054310;28;20498;-68
2022/03/27 06:22:47;;;;;;;20.83;11.90;;;14.30;91.40;;;;;;5074929;28;20563;-71
2022/03/27 06:25:18;;;;;;;17.90;11.90;;;14.30;91.40;;;;;;5056228;28;20463;-69
2022/03/27 06:28:36;;;;;;;19.13;12.03;;;14.30;91.50;;;;;;5055395;28;20984;-70
2022/03/27 06:31:55;;;;;;;24.57;13.10;;;14.30;91.50;;;;;;5088158;28;20803;-70
2022/03/27 06:34:47;;;;;;;21.10;12.80;;;14.30;91.50;;;;;;5079592;28;20505;-70
2022/03/27 06:37:13;;;;;;;20.67;12.80;;;14.30;91.60;;;;;;5055180;28;20829;-70
2022/03/27 06:39:39;;;;;;;21.37;12.83;;;14.30;91.80;;;;;;5034020;28;20508;-70
2022/03/27 06:42:08;;;;;;;23.13;13.13;;;14.20;91.80;;;;;;5036234;28;20431;-70
2022/03/27 06:44:36;;;;;;;26.43;13.93;;;14.20;91.80;;;;;;5051963;28;20453;-70
2022/03/27 06:47:04;;;;;;;20.70;13.20;;;14.20;91.90;;;;;;5037907;28;20494;-70
2022/03/27 06:49:30;;;;;;;21.23;13.47;;;14.20;91.90;;;;;;5080218;28;20545;-70
2022/03/27 06:51:56;;;;;;;20.97;12.03;;;14.30;92.00;;;;;;5065134;28;20499;-70
2022/03/27 06:54:48;;;;;;;17.93;11.90;;;14.20;92.00;;;;;;5053488;28;20432;-70
2022/03/27 06:57:17;;;;;;;19.83;14.20;;;14.20;92.10;;;;;;5068901;28;20392;-68
2022/03/27 07:05:17;;;;;;;22.50;13.07;;;14.20;92.20;;;;;;5072317;28;20437;-74
2022/03/27 07:07:45;;;;;;;23.33;13.80;;;14.20;92.30;;;;;;5054766;28;20397;-74
2022/03/27 07:10:11;;;;;;;17.90;12.10;;;14.20;92.40;;;;;;5037949;28;20456;-74
2022/03/27 07:12:43;;;;;;;21.57;14.33;;;14.20;92.40;;;;;;5023938;28;20445;-73
2022/03/27 07:15:13;;;;;;;20.53;12.80;;;14.20;92.40;;;;;;5041887;28;20449;-73
2022/03/27 07:17:50;;;;;;;18.83;12.67;;;14.20;92.40;;;;;;5058467;28;20914;-73
2022/03/27 07:20:41;;;;;;;18.67;13.70;;;14.20;92.40;;;;;;5040600;28;20505;-74
2022/03/27 07:23:10;;;;;;;19.17;12.30;;;14.20;92.50;;;;;;5057922;28;20413;-73
2022/03/27 07:25:42;;;;;;;18.73;11.77;;;14.20;92.40;;;;;;5058230;28;20483;-73
2022/03/27 07:28:12;;;;;;;18.37;12.10;;;14.20;92.50;;;;;;5041625;28;20468;-74
2022/03/27 07:30:41;;;;;;;20.10;13.40;;;14.20;92.50;;;;;;5058146;28;20544;-74
2022/03/27 07:33:08;;;;;;;18.20;12.23;;;14.20;92.50;;;;;;5058394;28;20417;-74
2022/03/27 07:35:38;;;;;;;19.13;11.70;;;14.20;92.50;;;;;;5041611;28;20440;-74
2022/03/27 07:38:31;;;;;;;19.30;12.60;;;14.20;92.50;;;;;;5058137;28;20406;-74
2022/03/27 07:40:59;;;;;;;19.73;13.17;;;14.20;92.60;;;;;;5025147;28;20816;-74
2022/03/27 07:43:25;;;;;;;18.17;13.63;;;14.10;92.60;;;;;;5056916;28;20426;-72
2022/03/27 07:45:54;;;;;;;18.00;12.77;;;14.10;92.70;;;;;;5021905;28;21064;-74
2022/03/27 07:48:20;;;;;;;19.33;12.80;;;14.10;92.60;;;;;;5040434;28;20482;-73
2022/03/27 07:50:54;;;;;;;18.70;12.97;;;14.10;92.60;;;;;;5040009;28;20461;-74
2022/03/27 07:53:24;;;;;;;16.70;11.30;;;14.10;92.70;;;;;;5039891;28;20465;-74
2022/03/27 07:55:55;;;;;;;18.30;12.57;;;14.10;92.70;;;;;;5040825;28;20446;-73
2022/03/27 07:58:21;;;;;;;18.17;12.80;;;14.10;92.70;;;;;;5056705;28;20397;-73
2022/03/27 08:01:06;;;;;;;19.50;13.17;;;14.10;92.80;;;;;;5041434;28;20829;-74
2022/03/27 08:03:38;;;;;;;21.07;12.20;;;14.10;92.80;;;;;;5057687;28;20510;-74
2022/03/27 08:06:06;;;;;;;21.17;12.73;;;14.10;92.70;;;;;;5057645;28;20549;-74
2022/03/27 08:08:32;;;;;;;19.00;12.77;;;14.10;92.80;;;;;;5057560;28;20769;-74
2022/03/27 08:10:58;;;;;;;18.40;12.80;;;14.10;92.80;;;;;;5040582;28;20496;-73
2022/03/27 08:13:25;;;;;;;21.43;13.57;;;14.10;92.80;;;;;;5057340;28;20404;-74
2022/03/27 08:15:51;;;;;;;18.57;12.53;;;14.10;92.80;;;;;;5074871;28;20428;-73
2022/03/27 08:18:17;;;;;;;15.73;11.60;;;14.10;92.80;;;;;;5069119;28;20514;-73
2022/03/27 08:20:44;;;;;;;16.90;12.23;;;14.10;92.90;;;;;;5061030;28;20456;-74
2022/03/27 08:23:13;;;;;;;17.53;11.40;;;14.10;92.80;;;;;;5060577;28;20486;-73
2022/03/27 08:29:02;;;;;;;14.83;11.27;;;14.10;92.80;;;;;;5077770;28;20466;-73
2022/03/27 08:31:58;;;;;;;17.70;12.17;;;14.10;92.80;;;;;;5095803;28;20850;-73
2022/03/27 08:34:31;;;;;;;16.27;12.20;;;14.10;92.90;;;;;;5077526;28;20429;-73
2022/03/27 08:36:58;;;;;;;21.93;12.80;;;14.10;92.90;;;;;;5077889;28;20424;-73
2022/03/27 08:39:27;;;;;;;19.53;12.70;;;14.10;93.00;;;;;;5077811;28;20500;-74
2022/03/27 08:41:59;;;;;;;18.93;12.40;;;14.10;93.00;;;;;;5077565;28;20759;-73
2022/03/27 08:44:27;;;;;;;18.43;11.60;;;14.10;93.10;;;;;;5095457;28;20398;-73
2022/03/27 08:46:55;;;;;;;18.23;11.50;;;14.10;93.20;;;;;;5044307;28;20441;-73
2022/03/27 08:52:54;;;;;;;18.70;12.90;;;14.10;93.30;;;;;;5077489;28;20962;-73
2022/03/27 08:55:38;;;;;;;19.10;12.40;;;14.10;93.30;;;;;;5077418;28;20445;-73
2022/03/27 08:58:09;;;;;;;16.53;11.37;;;14.10;93.20;;;;;;5095541;28;20484;-73
2022/03/27 09:00:40;;;;;;;18.27;12.63;;;14.10;93.30;;;;;;5060744;28;20461;-73
2022/03/27 09:03:32;;;;;;;16.60;11.90;;;14.10;93.30;;;;;;5095138;28;20409;-73
2022/03/27 09:06:02;;;;;;;19.80;13.20;;;14.10;93.40;;;;;;5043919;28;20452;-72
2022/03/27 09:08:29;;;;;;;16.73;12.23;;;14.20;93.60;;;;;;5095003;28;20780;-71
2022/03/27 09:10:56;;;;;;;20.93;11.93;;;14.20;93.70;;;;;;5094956;28;20543;-71
2022/03/27 09:13:25;;;;;;;17.77;12.10;;;14.10;93.60;;;;;;5094812;28;20446;-71
2022/03/27 09:16:08;;;;;;;18.27;13.70;;;14.20;93.70;;;;;;5094518;28;20933;-72
2022/03/27 09:18:47;;;;;;;18.20;12.50;;;14.20;93.70;;;;;;5076772;28;20528;-73
2022/03/27 09:21:14;;;;;;;19.33;12.40;;;14.20;93.70;;;;;;5076795;28;20401;-73
2022/03/27 09:24:15;;;;;;;15.50;11.00;;;14.20;93.70;;;;;;5060219;28;20424;-73
2022/03/27 09:27:00;;;;;;;18.03;12.60;;;14.20;93.70;;;;;;5046977;28;20457;-73
2022/03/27 09:29:29;;;;;;;19.57;12.60;;;14.20;93.80;;;;;;5076353;28;20866;-73
2022/03/27 09:31:58;;;;;;;20.80;12.90;;;14.20;93.90;;;;;;5076519;28;20405;-73
2022/03/27 09:34:50;;;;;;;17.50;12.60;;;14.20;94.10;;;;;;5059665;28;20425;-73
2022/03/27 09:40:36;;;;;;;17.00;12.30;;;14.20;94.30;;;;;;5094300;28;20438;-73
2022/03/27 09:43:11;;;;;;;17.87;11.93;;;14.20;94.40;;;;;;5059636;28;20492;-73
2022/03/27 09:45:55;;;;;;;18.87;13.33;;;14.20;94.50;;;;;;5094286;28;20972;-73
2022/03/27 09:48:26;;;;;;;17.50;12.53;;;14.20;94.60;;;;;;5076264;28;20955;-73
2022/03/27 09:50:53;;;;;;;16.40;12.20;;;14.30;94.70;;;;;;5059367;28;20476;-73
2022/03/27 09:53:32;;;;;;;15.57;11.00;;;14.30;94.70;;;;;;5094256;28;20801;-73
2022/03/27 09:56:00;;;;;;;14.77;11.77;;;14.30;94.70;;;;;;5094039;28;20446;-73
2022/03/27 09:58:57;;;;;;;15.77;10.47;;;14.30;94.70;;;;;;5042890;28;20509;-73
2022/03/27 10:01:26;;;;;;;19.80;12.20;;;14.30;94.70;;;;;;5044613;28;20425;-73
2022/03/27 10:03:57;;;;;;;19.17;12.20;;;14.30;94.70;;;;;;5076322;28;20891;-73
2022/03/27 10:06:27;;;;;;;17.30;12.30;;;14.30;94.60;;;;;;5075993;28;20789;-73
2022/03/27 10:08:55;;;;;;;18.77;12.40;;;14.30;94.60;;;;;;5076419;28;20402;-73
2022/03/27 10:11:26;;;;;;;18.30;11.90;;;14.30;94.70;;;;;;5075654;28;20467;-73
2022/03/27 10:13:55;;;;;;;17.93;11.90;;;14.30;94.60;;;;;;5059247;28;20452;-73
2022/03/27 10:16:29;;;;;;;16.67;11.50;;;14.40;94.70;;;;;;5043517;28;20462;-73
2022/03/27 10:19:02;;;;;;;14.93;11.37;;;14.40;94.80;;;;;;5075934;28;20410;-73
2022/03/27 10:21:35;;;;;;;16.20;11.57;;;14.40;94.80;;;;;;5075834;28;20426;-73
2022/03/27 10:24:30;;;;;;;16.67;11.20;;;14.40;94.90;;;;;;5059047;28;20419;-73
2022/03/27 10:27:02;;;;;;;19.30;11.13;;;14.40;94.90;;;;;;5075452;28;20483;-73
2022/03/27 10:29:53;;;;;;;16.93;11.20;;;14.50;94.90;;;;;;5075186;28;20500;-73
2022/03/27 10:32:22;;;;;;;13.90;11.00;;;14.50;94.90;;;;;;5058971;28;20443;-73
2022/03/27 10:35:14;;;;;;;16.60;10.80;;;14.50;95.00;;;;;;5093497;28;20837;-73
2022/03/27 10:37:50;;;;;;;18.40;11.90;;;14.50;95.10;;;;;;5059691;28;20466;-73
2022/03/27 10:40:21;;;;;;;16.63;11.07;;;14.50;95.00;;;;;;5093700;28;20415;-73
2022/03/27 10:43:04;;;;;;;15.57;11.60;;;14.50;95.00;;;;;;5075396;28;20939;-72
2022/03/27 10:45:32;;;;;;;17.00;12.00;;;14.50;95.10;;;;;;5058700;28;20541;-73
2022/03/27 10:48:20;;;;;;;17.17;11.20;;;14.60;95.10;;;;;;5042531;28;20402;-73
2022/03/27 10:50:54;;;;;;;18.93;12.07;;;14.60;95.10;;;;;;5075311;28;20556;-73
2022/03/27 10:53:23;;;;;;;16.10;11.70;;;14.60;95.20;;;;;;5075277;28;20495;-73
2022/03/27 10:55:58;;;;;;;19.10;12.83;;;14.60;95.30;;;;;;5075378;28;20445;-73
2022/03/27 10:58:35;;;;;;;15.17;10.87;;;14.60;95.30;;;;;;5058731;28;20426;-73
2022/03/27 11:01:04;;;;;;;16.70;11.30;;;14.70;95.30;;;;;;5075375;28;20428;-73
2022/03/27 11:04:04;;;;;;;19.40;12.30;;;14.70;95.30;;;;;;5075064;28;20452;-73
2022/03/27 11:07:19;;;;;;;17.13;10.77;;;14.80;95.30;;;;;;5075122;28;20457;-73
2022/03/27 11:09:46;;;;;;;21.50;12.63;;;14.80;95.20;;;;;;5075287;28;20468;-73
2022/03/27 11:12:25;;;;;;;17.83;12.17;;;14.80;95.20;;;;;;5075137;28;20417;-73
2022/03/27 11:15:06;;;;;;;17.53;12.13;;;14.80;95.10;;;;;;5075355;28;20407;-73
2022/03/27 11:18:12;;;;;;;19.37;11.80;;;14.90;95.10;;;;;;5093431;28;20488;-73
2022/03/27 11:20:46;;;;;;;18.93;11.33;;;14.90;95.10;;;;;;5058212;28;20436;-73
2022/03/27 11:23:23;;;;;;;17.40;11.50;;;14.90;95.00;;;;;;5041551;28;20459;-73
2022/03/27 11:25:49;;;;;;;19.03;11.53;;;14.90;94.80;;;;;;5092944;28;20440;-73
2022/03/27 11:28:17;;;;;;;17.57;11.93;;;15.00;94.80;;;;;;5058118;28;20434;-73
2022/03/27 11:30:56;;;;;;;18.37;12.37;;;15.00;94.70;;;;;;5058066;28;20458;-73
2022/03/27 11:33:30;;;;;;;19.13;13.00;;;15.00;94.60;;;;;;5074989;28;20465;-73
2022/03/27 11:36:09;;;;;;;20.57;12.97;;;15.00;94.60;;;;;;5092971;28;21023;-73
2022/03/27 11:39:02;;;;;;;16.73;12.00;;;15.10;94.70;;;;;;5092802;28;20427;-73
2022/03/27 11:41:46;;;;;;;17.90;10.77;;;15.10;94.80;;;;;;5041708;28;20440;-73
2022/03/27 11:44:19;;;;;;;20.07;12.53;;;15.10;94.80;;;;;;5092799;28;20478;-73
2022/03/27 11:46:54;;;;;;;20.20;12.03;;;15.20;94.70;;;;;;5074592;28;20798;-73
2022/03/27 11:49:35;;;;;;;19.20;11.17;;;15.20;94.70;;;;;;5058068;28;20761;-73
2022/03/27 11:52:11;;;;;;;20.17;12.37;;;15.20;94.50;;;;;;5092814;28;20399;-73
2022/03/27 11:55:09;;;;;;;18.90;11.87;;;15.20;94.30;;;;;;5074801;28;20385;-73
2022/03/27 11:57:52;;;;;;;17.47;12.40;;;15.30;94.30;;;;;;5058273;28;20414;-73
2022/03/27 12:00:42;;;;;;;16.30;10.53;;;15.30;94.30;;;;;;5077881;28;20536;-73
2022/03/27 12:03:22;;;;;;;18.47;12.03;;;15.30;94.20;;;;;;5061805;28;20417;-73
2022/03/27 12:05:53;;;;;;;19.63;11.30;;;15.40;94.10;;;;;;5078123;28;20435;-73
2022/03/27 12:08:20;;;;;;;18.33;11.83;;;15.40;94.10;;;;;;5061320;28;20490;-73
2022/03/27 12:10:56;;;;;;;20.07;12.27;;;15.40;94.20;;;;;;5078103;28;20462;-73
2022/03/27 12:13:22;;;;;;;21.07;12.87;;;15.40;94.10;;;;;;5096130;28;20431;-73
2022/03/27 12:15:54;;;;;;;21.30;12.20;;;15.50;94.10;;;;;;5078000;28;20455;-73
2022/03/27 12:18:33;;;;;;;23.27;13.83;;;15.50;94.10;;;;;;5078126;28;20424;-73
2022/03/27 12:21:09;;;;;;;22.27;12.37;;;15.50;94.10;;;;;;5077972;28;20412;-73
2022/03/27 12:23:55;;;;;;;18.63;13.13;;;15.60;94.00;;;;;;5077834;28;20458;-73
2022/03/27 12:29:49;;;;;;;22.50;13.03;;;15.60;93.90;;;;;;5061241;28;20499;-73
2022/03/27 12:32:25;;;;;;;16.83;11.30;;;15.60;93.80;;;;;;5061297;28;20510;-72
2022/03/27 12:34:55;;;;;;;19.43;12.47;;;15.70;93.90;;;;;;5061187;28;20781;-72
2022/03/27 12:37:26;;;;;;;18.83;11.83;;;15.70;93.80;;;;;;5061391;28;20408;-73
2022/03/27 12:39:55;;;;;;;19.10;13.50;;;15.70;93.80;;;;;;5077759;28;20780;-73
2022/03/27 12:42:32;;;;;;;23.47;12.50;;;15.80;93.80;;;;;;5060898;28;20499;-73
2022/03/27 12:45:09;;;;;;;16.73;11.30;;;15.80;93.70;;;;;;5095449;28;20843;-73
2022/03/27 12:47:54;;;;;;;19.17;12.20;;;15.80;93.60;;;;;;5044455;28;20415;-73
2022/03/27 12:50:29;;;;;;;20.60;12.30;;;15.80;93.50;;;;;;5095442;28;20435;-73
2022/03/27 12:53:00;;;;;;;19.23;12.63;;;15.90;93.60;;;;;;5060884;28;20769;-73
2022/03/27 12:55:43;;;;;;;21.87;13.10;;;15.90;93.50;;;;;;5077297;28;20431;-73
2022/03/27 12:58:14;;;;;;;19.23;12.80;;;15.90;93.80;;;;;;5077480;28;20490;-73
2022/03/27 13:00:41;;;;;;;17.17;12.50;;;15.90;93.40;;;;;;5077292;28;20404;-73
2022/03/27 13:03:22;;;;;;;15.97;10.47;;;16.00;93.40;;;;;;5077597;28;20406;-73
2022/03/27 13:05:53;;;;;;;16.47;11.87;;;16.00;93.30;;;;;;5077181;28;20789;-73
2022/03/27 13:08:26;;;;;;;18.43;12.10;;;16.00;93.20;;;;;;5095175;28;20409;-73
2022/03/27 13:10:59;;;;;;;16.20;11.43;;;16.00;93.20;;;;;;5076614;28;20464;-73
2022/03/27 13:13:41;;;;;;;15.53;11.00;;;16.00;93.20;;;;;;5060589;28;20416;-73
2022/03/27 13:16:45;;;;;;;14.83;11.00;;;16.10;93.20;;;;;;5060239;28;20454;-73
2022/03/27 13:19:34;;;;;;;18.27;11.60;;;16.10;93.10;;;;;;4961106;28;20424;-73
2022/03/27 13:22:02;;;;;;;18.17;10.90;;;16.10;93.00;;;;;;5091529;28;20424;-73
2022/03/27 13:24:31;;;;;;;17.67;10.87;;;16.20;93.00;;;;;;5076781;28;20396;-73
2022/03/27 13:27:04;;;;;;;16.27;10.40;;;16.20;93.00;;;;;;5060186;28;20856;-72
2022/03/27 13:29:33;;;;;;;16.40;11.00;;;16.20;92.90;;;;;;5076543;28;20466;-73
2022/03/27 13:31:59;;;;;;;15.30;9.50;;;16.20;92.90;;;;;;5060149;28;20493;-73
2022/03/27 13:34:32;;;;;;;14.10;9.80;;;16.30;92.90;;;;;;5060102;28;20426;-73
2022/03/27 13:37:04;;;;;;;14.97;9.60;;;16.30;92.80;;;;;;5060462;28;20857;-73
2022/03/27 13:39:37;;;;;;;14.53;9.60;;;16.30;92.80;;;;;;5076406;28;20424;-73
2022/03/27 13:44:56;;;;;;;14.73;9.40;;;16.40;92.60;;;;;;5094377;28;20422;-73
2022/03/27 13:47:29;;;;;;;14.80;9.10;;;16.40;92.60;;;;;;5076768;28;20505;-73
2022/03/27 13:49:58;;;;;;;16.10;9.67;;;16.40;92.50;;;;;;5094320;28;20565;-73
2022/03/27 13:52:26;;;;;;;13.67;9.10;;;16.40;92.40;;;;;;5059703;28;20458;-73
2022/03/27 13:54:54;;;;;;;14.73;8.93;;;16.40;92.30;;;;;;5059564;28;20470;-73
2022/03/27 13:57:20;;;;;;;13.20;8.70;;;16.50;92.30;;;;;;5059583;28;20456;-73
2022/03/27 13:59:52;;;;;;;11.40;8.73;;;16.50;92.30;;;;;;5059486;28;20825;-73
2022/03/27 14:02:22;;;;;;;10.40;7.87;;;16.50;92.20;;;;;;5076084;28;20460;-73
2022/03/27 14:04:48;;;;;;;14.17;8.50;;;16.50;92.10;;;;;;5093892;28;20405;-73
2022/03/27 14:07:18;;;;;;;12.80;8.80;;;16.60;92.10;;;;;;5042735;28;20794;-73
2022/03/27 14:09:49;;;;;;;11.20;7.50;;;16.60;92.10;;;;;;5059200;28;21051;-72
2022/03/27 14:12:18;;;;;;;11.57;8.57;;;16.60;92.00;;;;;;5059320;28;20415;-73
2022/03/27 14:14:50;;;;;;;12.77;8.30;;;16.60;92.00;;;;;;5093841;28;20399;-73
2022/03/27 14:17:20;;;;;;;11.53;7.27;;;16.70;92.00;;;;;;5059615;28;20390;-73
2022/03/27 14:19:48;;;;;;;12.53;8.07;;;16.60;91.90;;;;;;5059280;28;20420;-72
2022/03/27 14:22:17;;;;;;;10.97;7.53;;;16.70;91.90;;;;;;5093065;28;20392;-73
2022/03/27 14:24:49;;;;;;;10.97;7.50;;;16.70;91.80;;;;;;5075770;28;20454;-73
2022/03/27 14:27:16;;;;;;;11.50;6.87;;;16.70;91.80;;;;;;5075774;28;20440;-73
2022/03/27 14:29:48;;;;;;;9.00;7.50;;;16.70;91.80;;;;;;5075703;28;20455;-73
2022/03/27 14:32:16;;;;;;;11.53;7.37;;;16.80;91.80;;;;;;5058687;28;20413;-73
2022/03/27 14:34:43;;;;;;;11.10;7.67;;;16.80;91.80;;;;;;5075474;28;20389;-73
2022/03/27 14:37:09;;;;;;;12.13;7.30;;;16.80;91.70;;;;;;5075488;28;20423;-73
2022/03/27 14:39:39;;;;;;;8.27;6.33;;;16.80;91.60;;;;;;5075294;28;20412;-73
2022/03/27 14:42:10;;;;;;;10.20;7.83;;;16.80;91.50;;;;;;5075717;28;20462;-73
2022/03/27 14:45:08;;;;;;;10.03;6.90;;;16.90;91.50;;;;;;5075471;28;20420;-73
2022/03/27 14:47:35;;;;;;;7.93;6.37;;;16.90;91.40;;;;;;5075221;28;20459;-73
2022/03/27 14:50:17;;;;;;;9.23;6.20;;;16.90;91.40;;;;;;5057440;28;20834;-72
2022/03/27 14:52:43;;;;;;;8.90;6.20;;;16.90;91.40;;;;;;5041385;28;20423;-72
2022/03/27 14:58:01;;;;;;;10.80;7.10;;;17.00;91.30;;;;;;5057855;28;20451;-72